Time;durP1;ratioP1;P1;durP2;ratioP2;P2;SDS_P1;SDS_P2;PMS_P1;PMS_P2;Temp;Humidity;BMP_temperature;BMP_pressure;BME280_temperature;BME280_humidity;BME280_pressure;Samples;Min_cycle;Max_cycle;Signal;HPM_P1;HPM_P2
2021/09/26 00:00:20;;;;;;;14.52;9.85;;;16.00;99.90;;;;;;6301615;22;20053;-78
2021/09/26 00:02:46;;;;;;;11.75;9.68;;;16.00;99.90;;;;;;6301910;22;20010;-78
2021/09/26 00:05:12;;;;;;;12.27;10.50;;;16.00;99.90;;;;;;6301610;22;19996;-77
2021/09/26 00:07:39;;;;;;;12.20;9.95;;;16.00;99.90;;;;;;6300955;22;20010;-77
2021/09/26 00:10:06;;;;;;;13.02;9.95;;;16.00;99.90;;;;;;6301635;22;20002;-78
2021/09/26 00:12:32;;;;;;;12.38;10.68;;;15.90;99.90;;;;;;6301809;22;20480;-78
2021/09/26 00:14:58;;;;;;;14.70;10.65;;;15.90;99.90;;;;;;6298871;22;20012;-77
2021/09/26 00:17:23;;;;;;;13.95;9.88;;;15.90;99.90;;;;;;6300381;22;20003;-78
2021/09/26 00:19:49;;;;;;;15.90;10.05;;;15.90;99.90;;;;;;6301297;22;20034;-77
2021/09/26 00:22:15;;;;;;;13.52;9.73;;;15.90;99.90;;;;;;6301483;22;20453;-76
2021/09/26 00:24:40;;;;;;;12.50;9.40;;;15.80;99.90;;;;;;6302398;22;20070;-77
2021/09/26 00:27:09;;;;;;;13.75;10.73;;;15.80;99.90;;;;;;6301463;22;20012;-78
2021/09/26 00:29:35;;;;;;;12.43;10.02;;;15.80;99.90;;;;;;6301408;22;20082;-77
2021/09/26 00:32:01;;;;;;;13.40;10.63;;;15.70;99.90;;;;;;6301648;22;20035;-77
2021/09/26 00:34:26;;;;;;;13.15;10.20;;;15.70;99.90;;;;;;6301671;22;20462;-76
2021/09/26 00:36:52;;;;;;;13.43;10.35;;;15.70;99.90;;;;;;6302374;22;20010;-77
2021/09/26 00:39:17;;;;;;;14.27;10.68;;;15.60;99.90;;;;;;6301166;22;20822;-76
2021/09/26 00:41:43;;;;;;;14.02;11.02;;;15.60;99.90;;;;;;6301037;22;20007;-76
2021/09/26 00:44:08;;;;;;;13.13;10.05;;;15.60;99.90;;;;;;6301730;22;20342;-77
2021/09/26 00:46:34;;;;;;;13.73;10.68;;;15.60;99.90;;;;;;6300838;22;19999;-77
2021/09/26 00:48:59;;;;;;;12.18;10.20;;;15.50;99.90;;;;;;6301046;22;20003;-77
2021/09/26 00:51:25;;;;;;;13.90;10.55;;;15.50;99.90;;;;;;6302063;22;20060;-76
2021/09/26 00:53:51;;;;;;;13.73;11.23;;;15.50;99.90;;;;;;6276493;22;19995;-77
2021/09/26 00:56:16;;;;;;;12.77;10.48;;;15.50;99.90;;;;;;6304140;22;20060;-77
2021/09/26 00:58:42;;;;;;;15.02;11.05;;;15.40;99.90;;;;;;6302746;22;20414;-76
2021/09/26 01:01:07;;;;;;;13.30;10.88;;;15.40;99.90;;;;;;6304001;22;20045;-77
2021/09/26 01:03:33;;;;;;;12.88;9.90;;;15.40;99.90;;;;;;6304572;22;19999;-78
2021/09/26 01:06:26;;;;;;;16.25;11.18;;;15.40;99.90;;;;;;6303543;22;20003;-77
2021/09/26 01:09:16;;;;;;;12.05;9.35;;;15.30;99.90;;;;;;6303346;22;20655;-77
2021/09/26 01:11:58;;;;;;;12.13;9.40;;;15.30;99.90;;;;;;6302989;22;20003;-76
2021/09/26 01:14:50;;;;;;;16.70;10.68;;;15.20;99.90;;;;;;6304063;22;20006;-76
2021/09/26 01:17:21;;;;;;;13.10;10.07;;;15.20;99.90;;;;;;6275956;22;20002;-78
2021/09/26 01:20:08;;;;;;;14.20;9.73;;;15.20;99.90;;;;;;6302413;22;20637;-75
2021/09/26 01:23:06;;;;;;;11.88;10.00;;;15.20;99.90;;;;;;6303882;22;19999;-78
2021/09/26 01:26:08;;;;;;;14.57;10.45;;;15.20;99.90;;;;;;6303717;22;20037;-77
2021/09/26 01:29:03;;;;;;;11.55;9.55;;;15.10;99.90;;;;;;6302828;22;20403;-77
2021/09/26 01:31:33;;;;;;;11.73;9.90;;;15.10;99.90;;;;;;6303260;22;19999;-77
2021/09/26 01:34:23;;;;;;;13.07;10.23;;;15.00;99.90;;;;;;6304012;22;19995;-77
2021/09/26 01:37:06;;;;;;;12.13;10.00;;;15.00;99.90;;;;;;6302473;22;20011;-78
2021/09/26 01:40:06;;;;;;;13.57;10.45;;;15.00;99.90;;;;;;6302823;22;20003;-77
2021/09/26 01:42:46;;;;;;;11.63;9.23;;;15.00;99.90;;;;;;6303801;22;20022;-77
2021/09/26 01:45:16;;;;;;;13.00;10.23;;;14.90;99.90;;;;;;6302699;22;20528;-78
2021/09/26 01:47:57;;;;;;;12.32;10.02;;;14.90;99.90;;;;;;6275064;22;20003;-78
2021/09/26 01:50:24;;;;;;;10.60;8.77;;;14.90;99.90;;;;;;6304012;22;20003;-78
2021/09/26 01:52:50;;;;;;;15.45;9.60;;;14.90;99.90;;;;;;6303120;22;20052;-77
2021/09/26 01:55:17;;;;;;;13.13;11.07;;;14.80;99.90;;;;;;6304001;22;19999;-78
2021/09/26 01:57:44;;;;;;;14.43;10.25;;;14.80;99.90;;;;;;6302829;22;19999;-78
2021/09/26 02:00:11;;;;;;;15.50;10.93;;;14.80;99.90;;;;;;6303622;22;20015;-78
2021/09/26 02:02:37;;;;;;;11.40;9.88;;;14.80;99.90;;;;;;6302087;22;19999;-78
2021/09/26 02:05:05;;;;;;;12.95;10.57;;;14.80;99.90;;;;;;6303955;22;20051;-77
2021/09/26 02:07:34;;;;;;;14.73;10.13;;;14.80;99.90;;;;;;6302520;22;19999;-77
2021/09/26 02:10:00;;;;;;;11.30;9.57;;;14.80;99.90;;;;;;6275952;22;20003;-78
2021/09/26 02:12:30;;;;;;;13.80;10.18;;;14.70;99.90;;;;;;6302714;22;20011;-78
2021/09/26 02:14:56;;;;;;;13.52;10.98;;;14.70;99.90;;;;;;6303961;22;20003;-77
2021/09/26 02:17:23;;;;;;;13.32;10.27;;;14.70;99.90;;;;;;6303056;22;19995;-79
2021/09/26 02:19:50;;;;;;;17.42;10.88;;;14.70;99.90;;;;;;6302080;22;20007;-78
2021/09/26 02:22:16;;;;;;;15.70;10.57;;;14.70;99.90;;;;;;6303205;22;20003;-77
2021/09/26 02:24:43;;;;;;;13.45;10.75;;;14.70;99.90;;;;;;6303712;22;20480;-75
2021/09/26 02:27:09;;;;;;;13.27;11.57;;;14.60;99.90;;;;;;6303540;22;20015;-77
2021/09/26 02:29:35;;;;;;;13.48;10.98;;;14.60;99.90;;;;;;6302928;22;20418;-76
2021/09/26 02:32:01;;;;;;;14.57;11.88;;;14.60;99.90;;;;;;6302451;22;20333;-76
2021/09/26 02:34:27;;;;;;;14.93;11.20;;;14.70;99.90;;;;;;6303197;22;20041;-77
2021/09/26 02:36:52;;;;;;;15.45;12.40;;;14.60;99.90;;;;;;6302164;22;20007;-76
2021/09/26 02:39:18;;;;;;;14.32;11.77;;;14.60;99.90;;;;;;6302258;22;20066;-76
2021/09/26 02:42:14;;;;;;;13.40;10.90;;;14.60;99.90;;;;;;6302346;22;20115;-77
2021/09/26 02:44:52;;;;;;;15.05;11.13;;;14.60;99.90;;;;;;6302530;22;20410;-76
2021/09/26 02:47:21;;;;;;;12.30;10.07;;;14.60;99.90;;;;;;6275794;22;20004;-76
2021/09/26 02:49:47;;;;;;;13.70;10.50;;;14.60;99.90;;;;;;6302323;22;19999;-78
2021/09/26 02:52:13;;;;;;;13.60;10.68;;;14.60;99.90;;;;;;6302317;22;20406;-76
2021/09/26 02:54:41;;;;;;;13.93;11.07;;;14.60;99.90;;;;;;6303294;22;20003;-77
2021/09/26 02:57:09;;;;;;;17.13;11.88;;;14.60;99.90;;;;;;6302008;22;20008;-78
2021/09/26 02:59:37;;;;;;;15.57;11.43;;;14.60;99.90;;;;;;6302973;22;20008;-77
2021/09/26 03:02:03;;;;;;;14.90;11.57;;;14.60;99.90;;;;;;6302700;22;20318;-77
2021/09/26 03:04:28;;;;;;;13.98;11.38;;;14.60;99.90;;;;;;6302785;22;20364;-76
2021/09/26 03:06:55;;;;;;;12.82;10.77;;;14.50;99.90;;;;;;6302912;22;19999;-77
2021/09/26 03:09:20;;;;;;;13.95;11.15;;;14.50;99.90;;;;;;6301207;22;19995;-76
2021/09/26 03:11:47;;;;;;;16.38;12.52;;;14.50;99.90;;;;;;6301499;22;20003;-78
2021/09/26 03:14:12;;;;;;;13.15;11.18;;;14.50;99.90;;;;;;6300427;22;20004;-78
2021/09/26 03:16:38;;;;;;;13.88;10.25;;;14.50;99.90;;;;;;6301365;22;20018;-78
2021/09/26 03:19:03;;;;;;;12.10;10.75;;;14.50;99.90;;;;;;6300670;22;20718;-77
2021/09/26 03:21:30;;;;;;;15.00;11.48;;;14.50;99.90;;;;;;6301780;22;20440;-78
2021/09/26 03:23:56;;;;;;;14.70;11.80;;;14.50;99.90;;;;;;6301450;22;19999;-78
2021/09/26 03:26:22;;;;;;;16.85;11.90;;;14.50;99.90;;;;;;6300828;22;20041;-78
2021/09/26 03:28:47;;;;;;;14.52;11.20;;;14.50;99.90;;;;;;6299202;22;20434;-77
2021/09/26 03:31:13;;;;;;;12.23;10.57;;;14.50;99.90;;;;;;6299071;22;20003;-78
2021/09/26 03:33:38;;;;;;;14.35;11.10;;;14.40;99.90;;;;;;6300264;22;20018;-78
2021/09/26 03:36:04;;;;;;;12.85;10.48;;;14.40;99.90;;;;;;6300045;22;20414;-78
2021/09/26 03:38:30;;;;;;;14.85;11.50;;;14.40;99.90;;;;;;6299311;22;20007;-77
2021/09/26 03:40:56;;;;;;;12.60;10.13;;;14.40;99.90;;;;;;6300320;22;20307;-78
2021/09/26 03:43:21;;;;;;;14.80;10.20;;;14.40;99.90;;;;;;6272471;22;19996;-77
2021/09/26 03:45:50;;;;;;;13.30;10.32;;;14.50;99.90;;;;;;6301000;22;20030;-77
2021/09/26 03:48:23;;;;;;;13.00;10.40;;;14.40;99.90;;;;;;6299272;22;19999;-77
2021/09/26 03:50:49;;;;;;;;;;;14.50;99.90;;;;;;6300015;22;20067;-76
2021/09/26 03:53:14;;;;;;;12.60;10.85;;;14.50;99.90;;;;;;6299773;22;19899;-76
2021/09/26 03:55:40;;;;;;;13.43;10.57;;;14.40;99.90;;;;;;6299913;22;20003;-76
2021/09/26 03:58:07;;;;;;;14.20;10.93;;;14.40;99.90;;;;;;6272979;22;20479;-76
2021/09/26 04:00:33;;;;;;;13.50;11.25;;;14.40;99.90;;;;;;6301356;22;20425;-76
2021/09/26 04:02:58;;;;;;;12.77;10.77;;;14.40;99.90;;;;;;6247249;22;20011;-76
2021/09/26 04:05:24;;;;;;;13.50;10.98;;;14.40;99.90;;;;;;6274271;22;20003;-76
2021/09/26 04:07:49;;;;;;;12.88;10.77;;;14.50;99.90;;;;;;6298984;22;20003;-76
2021/09/26 04:10:15;;;;;;;11.98;10.00;;;14.50;99.90;;;;;;6300410;22;20005;-76
2021/09/26 04:12:40;;;;;;;12.43;10.77;;;14.50;99.90;;;;;;6301203;22;20003;-77
2021/09/26 04:15:07;;;;;;;12.80;10.18;;;14.40;99.90;;;;;;6301152;22;20082;-76
2021/09/26 04:17:33;;;;;;;13.93;10.52;;;14.50;99.90;;;;;;6301447;22;19992;-76
2021/09/26 04:19:59;;;;;;;15.82;10.93;;;14.50;99.90;;;;;;6273898;22;20009;-77
2021/09/26 04:22:25;;;;;;;12.65;10.13;;;14.40;99.90;;;;;;6300387;22;20060;-77
2021/09/26 04:24:51;;;;;;;11.85;10.05;;;14.40;99.90;;;;;;6301418;22;20505;-77
2021/09/26 04:27:16;;;;;;;11.45;9.55;;;14.40;99.90;;;;;;6262279;22;996427;-76
2021/09/26 04:29:42;;;;;;;11.50;9.40;;;14.40;99.90;;;;;;6303938;22;20018;-76
2021/09/26 04:32:07;;;;;;;19.05;11.23;;;14.40;99.90;;;;;;6306047;22;20007;-76
2021/09/26 04:34:33;;;;;;;14.02;10.20;;;14.40;99.90;;;;;;6305793;22;20041;-78
2021/09/26 04:37:01;;;;;;;13.73;11.25;;;14.40;99.90;;;;;;6306072;22;20004;-76
2021/09/26 04:39:26;;;;;;;12.10;10.55;;;14.40;99.90;;;;;;6305332;22;20045;-77
2021/09/26 04:41:52;;;;;;;13.30;10.85;;;14.40;99.90;;;;;;6305705;22;20004;-78
2021/09/26 04:44:17;;;;;;;11.23;9.18;;;14.50;99.90;;;;;;6305909;22;20003;-76
2021/09/26 04:46:43;;;;;;;13.38;10.35;;;14.50;99.90;;;;;;6299658;22;20079;-76
2021/09/26 04:49:09;;;;;;;11.75;9.93;;;14.50;99.90;;;;;;6300627;22;20019;-77
2021/09/26 04:51:35;;;;;;;13.27;10.35;;;14.50;99.90;;;;;;6303442;22;20003;-76
2021/09/26 04:54:00;;;;;;;12.63;10.32;;;14.60;99.90;;;;;;6303590;22;20003;-77
2021/09/26 04:56:26;;;;;;;11.93;10.25;;;14.60;99.90;;;;;;6302851;22;20007;-76
2021/09/26 04:58:51;;;;;;;12.98;10.35;;;14.70;99.90;;;;;;6302523;22;19995;-77
2021/09/26 05:01:17;;;;;;;13.25;10.02;;;14.70;99.90;;;;;;6302896;22;20099;-75
2021/09/26 05:03:43;;;;;;;16.38;10.05;;;14.80;99.90;;;;;;6303956;22;20282;-77
2021/09/26 05:06:08;;;;;;;11.90;9.88;;;14.80;99.90;;;;;;6303525;22;20030;-76
2021/09/26 05:08:34;;;;;;;11.20;9.05;;;14.80;99.90;;;;;;6302096;22;20007;-75
2021/09/26 05:11:00;;;;;;;11.23;9.02;;;14.90;99.90;;;;;;6303608;22;20009;-76
2021/09/26 05:13:25;;;;;;;10.80;9.23;;;14.90;99.90;;;;;;6300639;22;20048;-77
2021/09/26 05:15:51;;;;;;;11.80;8.75;;;14.90;99.90;;;;;;6302600;22;20026;-77
2021/09/26 05:18:17;;;;;;;10.20;8.32;;;14.90;99.90;;;;;;6303349;22;20003;-77
2021/09/26 05:20:43;;;;;;;13.02;7.85;;;14.90;99.90;;;;;;6302020;22;20361;-75
2021/09/26 05:23:09;;;;;;;9.82;8.23;;;14.90;99.90;;;;;;6302451;22;20007;-78
2021/09/26 05:25:34;;;;;;;9.25;8.07;;;14.90;99.90;;;;;;6301581;22;20646;-76
2021/09/26 05:28:02;;;;;;;11.25;8.23;;;14.90;99.90;;;;;;6300986;22;20088;-76
2021/09/26 05:30:29;;;;;;;9.00;7.82;;;14.90;99.90;;;;;;6302461;22;20006;-76
2021/09/26 05:32:55;;;;;;;10.07;7.38;;;14.90;99.90;;;;;;6302472;22;20078;-76
2021/09/26 05:35:21;;;;;;;9.65;8.13;;;14.90;99.90;;;;;;6300111;22;20034;-76
2021/09/26 05:37:46;;;;;;;10.48;8.43;;;14.90;99.90;;;;;;6300731;22;20396;-77
2021/09/26 05:40:12;;;;;;;8.35;7.22;;;14.90;99.90;;;;;;6300565;22;19999;-77
2021/09/26 05:42:38;;;;;;;9.60;8.57;;;14.90;99.90;;;;;;6301216;22;20054;-77
2021/09/26 05:45:05;;;;;;;11.07;8.55;;;14.90;99.90;;;;;;6303751;22;20006;-78
2021/09/26 05:47:30;;;;;;;12.73;8.35;;;14.90;99.90;;;;;;6301956;22;20003;-77
2021/09/26 05:49:55;;;;;;;9.05;7.60;;;15.00;99.90;;;;;;6302685;22;20000;-79
2021/09/26 05:52:21;;;;;;;8.43;7.57;;;15.00;99.90;;;;;;6276190;22;20003;-78
2021/09/26 05:54:47;;;;;;;8.90;7.97;;;15.10;99.90;;;;;;6303168;22;20597;-75
2021/09/26 05:57:12;;;;;;;8.77;7.40;;;15.10;99.90;;;;;;6303952;22;20011;-80
2021/09/26 05:59:38;;;;;;;8.23;7.05;;;15.20;99.90;;;;;;6302287;22;20014;-77
2021/09/26 06:02:05;;;;;;;8.13;6.80;;;15.20;99.90;;;;;;6302500;22;20681;-77
2021/09/26 06:04:31;;;;;;;7.80;7.00;;;15.30;99.90;;;;;;6301639;22;20003;-76
2021/09/26 06:06:56;;;;;;;9.80;6.35;;;15.30;99.90;;;;;;6301501;22;20110;-76
2021/09/26 06:09:22;;;;;;;9.25;6.70;;;15.40;99.90;;;;;;6299236;22;20053;-77
2021/09/26 06:11:47;;;;;;;10.68;6.60;;;15.40;99.90;;;;;;6299857;22;20012;-77
2021/09/26 06:14:13;;;;;;;7.50;6.35;;;15.50;99.90;;;;;;6301429;22;20078;-76
2021/09/26 06:16:40;;;;;;;7.68;6.10;;;15.60;99.90;;;;;;6301852;22;20322;-77
2021/09/26 06:19:05;;;;;;;7.60;6.20;;;15.60;99.90;;;;;;6299074;22;20010;-76
2021/09/26 06:21:31;;;;;;;7.70;6.22;;;15.70;99.90;;;;;;6296916;22;20030;-77
2021/09/26 06:23:56;;;;;;;9.30;6.90;;;15.70;99.90;;;;;;6300762;22;20103;-77
2021/09/26 06:26:25;;;;;;;8.18;5.55;;;15.80;99.90;;;;;;6301118;22;20022;-76
2021/09/26 06:28:51;;;;;;;7.78;6.15;;;15.80;99.90;;;;;;6300560;22;20480;-77
2021/09/26 06:31:16;;;;;;;6.55;5.53;;;15.90;99.90;;;;;;6300889;22;19995;-77
2021/09/26 06:33:42;;;;;;;7.45;5.63;;;15.90;99.90;;;;;;6300232;22;20450;-77
2021/09/26 06:36:08;;;;;;;11.82;6.85;;;16.00;99.90;;;;;;6300394;22;20438;-77
2021/09/26 06:38:33;;;;;;;6.63;5.65;;;16.00;99.90;;;;;;6300650;22;20006;-76
2021/09/26 06:40:59;;;;;;;7.00;5.82;;;16.10;99.90;;;;;;6299568;22;20003;-77
2021/09/26 06:43:24;;;;;;;6.93;5.55;;;16.20;99.90;;;;;;6301362;22;20022;-76
2021/09/26 06:45:50;;;;;;;11.90;6.18;;;16.20;99.90;;;;;;6301525;22;20307;-76
2021/09/26 06:48:16;;;;;;;6.40;5.75;;;16.20;99.90;;;;;;6301279;22;20079;-75
2021/09/26 06:50:41;;;;;;;6.00;5.25;;;16.30;99.90;;;;;;6301223;22;20094;-76
2021/09/26 06:53:07;;;;;;;6.05;5.45;;;16.30;99.90;;;;;;6302888;22;20000;-76
2021/09/26 06:55:32;;;;;;;6.10;5.00;;;16.40;99.90;;;;;;6301709;22;20006;-77
2021/09/26 06:57:58;;;;;;;6.95;5.60;;;16.40;99.90;;;;;;6301508;22;20014;-77
2021/09/26 07:00:23;;;;;;;5.78;4.95;;;16.50;99.90;;;;;;6301532;22;20303;-77
2021/09/26 07:02:49;;;;;;;5.93;4.95;;;16.50;99.90;;;;;;6273100;22;20018;-76
2021/09/26 07:05:14;;;;;;;7.07;5.90;;;16.60;99.90;;;;;;6302492;22;20031;-76
2021/09/26 07:07:44;;;;;;;7.40;5.50;;;16.60;99.90;;;;;;6299255;22;20291;-76
2021/09/26 07:10:10;;;;;;;8.30;5.35;;;16.70;99.90;;;;;;6301009;22;20078;-76
2021/09/26 07:12:35;;;;;;;8.40;5.43;;;16.70;99.90;;;;;;6303057;22;19999;-77
2021/09/26 07:15:01;;;;;;;6.68;5.80;;;16.80;99.90;;;;;;6300906;22;19999;-76
2021/09/26 07:17:27;;;;;;;6.38;5.40;;;16.90;99.90;;;;;;6301739;22;19996;-77
2021/09/26 07:19:53;;;;;;;6.53;5.25;;;17.00;99.90;;;;;;6273212;22;20704;-76
2021/09/26 07:22:23;;;;;;;8.13;5.55;;;17.00;99.70;;;;;;6301162;22;20003;-77
2021/09/26 07:24:50;;;;;;;10.15;5.35;;;17.10;99.30;;;;;;6302533;22;20085;-76
2021/09/26 07:27:15;;;;;;;5.40;4.88;;;17.20;99.30;;;;;;6303013;22;20562;-77
2021/09/26 07:29:42;;;;;;;6.68;5.65;;;17.20;99.20;;;;;;6301656;22;20031;-76
2021/09/26 07:32:08;;;;;;;7.10;5.13;;;17.20;99.30;;;;;;6302801;22;20007;-77
2021/09/26 07:34:33;;;;;;;7.30;5.05;;;17.30;99.30;;;;;;6301059;22;20033;-77
2021/09/26 07:36:59;;;;;;;6.78;5.50;;;17.30;99.50;;;;;;6300421;22;20026;-76
2021/09/26 07:39:24;;;;;;;7.18;5.05;;;17.40;99.60;;;;;;6299937;22;19995;-76
2021/09/26 07:41:50;;;;;;;7.18;5.65;;;17.40;99.50;;;;;;6272962;22;20053;-76
2021/09/26 07:44:15;;;;;;;6.45;5.35;;;17.50;99.40;;;;;;6301730;22;20015;-76
2021/09/26 07:46:43;;;;;;;7.18;5.43;;;17.50;99.40;;;;;;6303197;22;19991;-76
2021/09/26 07:49:09;;;;;;;7.75;5.68;;;17.60;99.40;;;;;;6302093;22;20092;-77
2021/09/26 07:51:34;;;;;;;7.65;5.70;;;17.60;99.40;;;;;;6302914;22;19999;-76
2021/09/26 07:53:59;;;;;;;5.90;5.30;;;17.70;99.60;;;;;;6302925;22;20006;-77
2021/09/26 07:56:25;;;;;;;6.07;5.47;;;17.80;99.30;;;;;;6302760;22;19999;-77
2021/09/26 07:58:50;;;;;;;6.10;5.30;;;17.80;99.30;;;;;;6302260;22;19999;-77
2021/09/26 08:01:16;;;;;;;7.18;4.95;;;17.90;99.40;;;;;;6301659;22;20099;-77
2021/09/26 08:03:41;;;;;;;7.18;4.95;;;17.90;99.20;;;;;;6302996;22;20003;-78
2021/09/26 08:06:07;;;;;;;6.15;5.10;;;18.00;99.10;;;;;;6302197;22;19999;-77
2021/09/26 08:08:35;;;;;;;5.47;4.80;;;18.10;99.30;;;;;;6302096;22;20071;-77
2021/09/26 08:11:02;;;;;;;6.18;4.68;;;18.20;99.20;;;;;;6302280;22;20438;-77
2021/09/26 08:13:28;;;;;;;6.82;4.63;;;18.40;98.60;;;;;;6302425;22;20031;-77
2021/09/26 08:15:53;;;;;;;5.57;4.03;;;18.50;98.60;;;;;;6302384;22;20338;-77
2021/09/26 08:18:18;;;;;;;5.15;4.35;;;18.60;98.10;;;;;;6301251;22;20063;-77
2021/09/26 08:20:44;;;;;;;5.25;4.13;;;18.80;97.70;;;;;;6302083;22;20026;-77
2021/09/26 08:23:10;;;;;;;6.28;3.90;;;19.00;97.70;;;;;;6302674;22;20053;-77
2021/09/26 08:25:35;;;;;;;5.15;4.43;;;19.10;97.40;;;;;;6300453;22;19995;-77
2021/09/26 08:28:01;;;;;;;5.57;3.88;;;19.30;97.20;;;;;;6302103;22;20437;-77
2021/09/26 08:30:27;;;;;;;5.05;4.30;;;19.50;96.80;;;;;;6302500;22;20033;-77
2021/09/26 08:32:52;;;;;;;4.75;4.30;;;19.60;96.60;;;;;;6302546;22;20041;-77
2021/09/26 08:35:18;;;;;;;4.78;4.03;;;19.80;96.30;;;;;;6302533;22;20060;-78
2021/09/26 08:37:44;;;;;;;3.70;3.22;;;19.90;96.00;;;;;;6301406;22;20038;-78
2021/09/26 08:40:10;;;;;;;6.05;3.90;;;20.00;95.20;;;;;;6302200;22;20021;-78
2021/09/26 08:42:37;;;;;;;5.18;3.70;;;20.10;95.20;;;;;;6302272;22;20496;-78
2021/09/26 08:45:06;;;;;;;3.97;3.25;;;20.20;95.20;;;;;;6302896;22;19999;-78
2021/09/26 08:47:36;;;;;;;5.35;3.45;;;20.30;94.90;;;;;;6301587;22;19998;-78
2021/09/26 08:50:06;;;;;;;3.97;3.58;;;20.40;94.60;;;;;;6302165;22;20325;-78
2021/09/26 08:52:31;;;;;;;3.55;3.10;;;20.50;95.20;;;;;;6301710;22;20425;-78
2021/09/26 08:54:57;;;;;;;3.97;3.17;;;20.70;94.00;;;;;;6302557;22;19999;-78
2021/09/26 08:57:23;;;;;;;4.20;3.35;;;20.90;93.90;;;;;;6302431;22;20003;-78
2021/09/26 08:59:48;;;;;;;4.15;3.28;;;21.00;94.10;;;;;;6301573;22;19999;-78
2021/09/26 09:02:14;;;;;;;4.10;3.15;;;21.30;94.10;;;;;;6302154;22;20004;-79
2021/09/26 09:04:42;;;;;;;6.00;3.03;;;21.50;93.20;;;;;;6302655;22;20003;-78
2021/09/26 09:07:09;;;;;;;5.25;3.40;;;21.70;92.90;;;;;;6302333;22;19999;-78
2021/09/26 09:09:47;;;;;;;4.82;3.33;;;21.90;92.00;;;;;;6301605;22;20080;-78
2021/09/26 09:12:13;;;;;;;3.55;3.25;;;22.10;92.10;;;;;;6301568;22;20011;-78
2021/09/26 09:15:01;;;;;;;4.78;3.17;;;22.10;91.70;;;;;;6304593;22;20009;-78
2021/09/26 09:17:40;;;;;;;6.47;3.25;;;22.20;91.20;;;;;;6303647;22;20005;-78
2021/09/26 09:20:15;;;;;;;9.13;3.10;;;22.30;91.20;;;;;;6304475;22;19995;-78
2021/09/26 09:22:43;;;;;;;6.32;3.03;;;22.40;91.60;;;;;;6303690;22;20003;-78
2021/09/26 09:25:28;;;;;;;4.25;3.05;;;22.50;90.80;;;;;;6304460;22;19999;-78
2021/09/26 09:27:55;;;;;;;4.38;2.90;;;22.50;91.10;;;;;;6303280;22;20061;-79
2021/09/26 09:30:31;;;;;;;7.55;2.85;;;22.60;91.40;;;;;;6304142;22;20003;-79
2021/09/26 09:32:57;;;;;;;4.75;3.15;;;22.70;91.30;;;;;;6304068;22;19995;-77
2021/09/26 09:35:23;;;;;;;3.63;3.00;;;22.80;91.10;;;;;;6304130;22;19999;-77
2021/09/26 09:37:48;;;;;;;5.10;2.83;;;22.80;91.60;;;;;;6303297;22;20094;-77
2021/09/26 09:40:18;;;;;;;4.00;3.35;;;22.90;90.60;;;;;;6303888;22;19999;-79
2021/09/26 09:42:47;;;;;;;5.60;3.35;;;23.00;90.90;;;;;;6303517;22;20005;-77
2021/09/26 09:45:16;;;;;;;3.50;2.53;;;23.10;91.10;;;;;;6303984;22;19998;-77
2021/09/26 09:48:01;;;;;;;4.45;3.22;;;23.20;90.60;;;;;;6302406;22;20019;-78
2021/09/26 09:50:57;;;;;;;4.40;2.40;;;23.30;90.10;;;;;;6304127;22;20003;-77
2021/09/26 09:53:38;;;;;;;5.10;2.83;;;23.40;90.40;;;;;;6304026;22;20024;-77
2021/09/26 09:56:09;;;;;;;3.88;3.13;;;23.50;89.80;;;;;;6304170;22;20389;-77
2021/09/26 09:58:45;;;;;;;3.85;3.30;;;23.50;90.00;;;;;;6302884;22;20074;-77
2021/09/26 10:01:33;;;;;;;6.20;2.90;;;23.60;89.80;;;;;;6303629;22;20045;-77
2021/09/26 10:04:03;;;;;;;3.40;2.97;;;23.60;89.70;;;;;;6303712;22;20026;-78
2021/09/26 10:06:38;;;;;;;7.43;3.80;;;23.70;89.00;;;;;;6303576;22;20125;-77
2021/09/26 10:09:42;;;;;;;3.40;3.10;;;23.70;90.30;;;;;;6303186;22;20003;-78
2021/09/26 10:12:09;;;;;;;4.25;2.92;;;23.80;90.20;;;;;;6294006;22;20010;-79
2021/09/26 10:14:35;;;;;;;3.40;2.55;;;23.80;90.30;;;;;;6303691;22;19996;-77
2021/09/26 10:17:04;;;;;;;4.03;2.72;;;23.90;90.40;;;;;;6303429;22;20002;-77
2021/09/26 10:19:31;;;;;;;4.95;3.15;;;24.00;90.10;;;;;;6302262;22;19996;-77
2021/09/26 10:22:00;;;;;;;3.60;3.20;;;24.10;90.20;;;;;;6302423;22;20326;-77
2021/09/26 10:24:31;;;;;;;3.00;2.70;;;24.20;89.50;;;;;;6303987;22;20452;-77
2021/09/26 10:27:03;;;;;;;3.60;2.92;;;24.20;88.50;;;;;;6303634;22;20008;-77
2021/09/26 10:29:32;;;;;;;3.47;2.90;;;24.40;87.90;;;;;;6302649;22;20003;-77
2021/09/26 10:32:00;;;;;;;3.30;2.53;;;24.40;89.80;;;;;;6303294;22;20049;-77
2021/09/26 10:34:26;;;;;;;3.70;2.78;;;24.40;87.80;;;;;;6303273;22;20007;-77
2021/09/26 10:36:52;;;;;;;3.83;2.72;;;24.50;88.10;;;;;;6303315;22;20018;-78
2021/09/26 10:39:18;;;;;;;4.65;3.25;;;24.60;87.10;;;;;;6302187;22;20249;-78
2021/09/26 10:42:05;;;;;;;2.97;2.55;;;24.70;87.40;;;;;;6302370;22;20038;-77
2021/09/26 10:44:31;;;;;;;3.42;2.72;;;24.70;87.00;;;;;;6276173;22;20048;-77
2021/09/26 10:47:17;;;;;;;5.40;2.50;;;24.80;87.00;;;;;;6303296;22;20093;-78
2021/09/26 10:50:16;;;;;;;3.45;2.80;;;24.90;87.00;;;;;;6302655;22;19999;-78
2021/09/26 10:52:49;;;;;;;4.05;3.03;;;24.90;86.80;;;;;;6302878;22;20099;-77
2021/09/26 10:55:15;;;;;;;7.07;2.83;;;25.10;87.40;;;;;;6303291;22;19991;-77
2021/09/26 10:57:43;;;;;;;3.00;2.70;;;25.20;86.30;;;;;;6302524;22;20006;-77
2021/09/26 11:00:09;;;;;;;6.60;3.30;;;25.20;87.00;;;;;;6302840;22;20003;-78
2021/09/26 11:02:37;;;;;;;3.60;3.30;;;25.30;86.60;;;;;;6302917;22;20033;-78
2021/09/26 11:05:05;;;;;;;6.10;2.58;;;25.40;84.60;;;;;;6303359;22;20050;-78
2021/09/26 11:07:41;;;;;;;3.45;2.88;;;25.40;85.90;;;;;;6302366;22;20083;-78
2021/09/26 11:10:07;;;;;;;3.78;2.83;;;25.50;85.80;;;;;;6303424;22;20070;-78
2021/09/26 11:12:51;;;;;;;3.15;2.58;;;25.50;87.60;;;;;;6302235;22;19999;-79
2021/09/26 11:15:21;;;;;;;3.30;2.65;;;25.60;86.30;;;;;;6303358;22;20007;-78
2021/09/26 11:17:57;;;;;;;3.35;2.90;;;25.70;87.20;;;;;;6301668;22;20018;-77
2021/09/26 11:20:26;;;;;;;4.10;2.72;;;25.70;86.50;;;;;;6303225;22;20004;-77
2021/09/26 11:23:07;;;;;;;3.83;2.38;;;25.80;87.40;;;;;;6302298;22;20004;-77
2021/09/26 11:25:57;;;;;;;3.63;2.50;;;26.00;85.70;;;;;;6303432;22;20060;-77
2021/09/26 11:28:37;;;;;;;2.78;2.50;;;26.00;86.00;;;;;;6301555;22;20031;-77
2021/09/26 11:31:30;;;;;;;3.85;2.42;;;26.10;85.20;;;;;;6302697;22;20003;-77
2021/09/26 11:33:58;;;;;;;2.97;2.50;;;26.20;83.40;;;;;;6302341;22;20006;-77
2021/09/26 11:36:26;;;;;;;2.97;2.35;;;26.30;84.60;;;;;;6302451;22;20583;-77
2021/09/26 11:38:52;;;;;;;3.38;2.60;;;26.30;83.30;;;;;;6301953;22;20413;-78
2021/09/26 11:41:36;;;;;;;8.00;3.05;;;26.30;83.80;;;;;;6274810;22;20028;-77
2021/09/26 11:44:04;;;;;;;3.08;2.65;;;26.40;84.10;;;;;;6303082;22;20003;-78
2021/09/26 11:46:30;;;;;;;3.67;2.85;;;26.40;83.40;;;;;;6302345;22;20078;-79
2021/09/26 11:49:01;;;;;;;3.63;2.63;;;26.30;84.00;;;;;;6301474;22;20072;-78
2021/09/26 11:51:27;;;;;;;3.35;2.78;;;26.30;84.20;;;;;;6302754;22;20012;-78
2021/09/26 11:53:52;;;;;;;3.42;2.85;;;26.30;85.00;;;;;;6275203;22;20078;-78
2021/09/26 11:56:21;;;;;;;4.22;2.38;;;26.30;84.90;;;;;;6301274;22;20003;-78
2021/09/26 11:58:52;;;;;;;3.28;2.50;;;26.30;84.80;;;;;;6301499;22;19992;-79
2021/09/26 12:01:26;;;;;;;3.53;2.78;;;26.30;84.40;;;;;;6302203;22;20027;-78
2021/09/26 12:04:08;;;;;;;2.47;2.22;;;26.30;85.70;;;;;;6302577;22;20037;-78
2021/09/26 12:06:33;;;;;;;4.15;2.70;;;26.30;85.80;;;;;;6301700;22;20207;-77
2021/09/26 12:08:59;;;;;;;4.05;2.60;;;26.30;85.30;;;;;;6301729;22;19999;-79
2021/09/26 12:11:25;;;;;;;4.40;2.92;;;26.30;85.00;;;;;;6302011;22;20426;-77
2021/09/26 12:13:53;;;;;;;3.60;2.80;;;26.30;83.50;;;;;;6302625;22;20004;-77
2021/09/26 12:16:20;;;;;;;4.32;2.78;;;26.30;84.90;;;;;;6302641;22;20003;-78
2021/09/26 12:18:51;;;;;;;2.45;2.17;;;26.30;85.80;;;;;;6301531;22;19993;-79
2021/09/26 12:21:17;;;;;;;3.85;2.70;;;26.30;83.70;;;;;;6302255;22;20030;-78
2021/09/26 12:23:49;;;;;;;4.72;2.70;;;26.30;84.90;;;;;;6301777;22;20011;-78
2021/09/26 12:26:21;;;;;;;3.28;2.42;;;26.30;84.80;;;;;;6302664;22;20003;-78
2021/09/26 12:29:05;;;;;;;2.60;2.40;;;26.40;83.90;;;;;;6301598;22;20004;-78
2021/09/26 12:31:32;;;;;;;5.55;2.70;;;26.50;81.80;;;;;;6302029;22;20022;-78
2021/09/26 12:33:59;;;;;;;2.90;2.30;;;26.60;82.40;;;;;;6302506;22;20011;-78
2021/09/26 12:36:29;;;;;;;3.15;2.42;;;26.80;83.60;;;;;;6302113;22;20333;-78
2021/09/26 12:38:57;;;;;;;2.60;2.35;;;26.90;82.40;;;;;;6301567;22;20052;-78
2021/09/26 12:41:29;;;;;;;2.90;2.60;;;27.00;84.00;;;;;;6301121;22;20369;-78
2021/09/26 12:44:05;;;;;;;2.92;2.58;;;27.20;81.50;;;;;;6302655;22;20003;-78
2021/09/26 12:46:48;;;;;;;2.80;2.45;;;27.30;81.50;;;;;;6303104;22;20045;-78